Main page
METAR-TAF:

METAR-TAF

Airports :

RAF Marham

Marham, England

latitude: 52-39N, longitude: 000-34E, elevation: 23 m

Current weather observation

The report was made 21 minutes ago, at 08:50 UTC
Wind 9 kt from the South/Southwest
Temperature 17°C
Humidity 77%
Pressure 1026 hPa
Visibility 10 km or more
Few clouds at a height of 2000 ft
Broken clouds at a height of 24000 ft

METAR: EGYM 210850Z 21009KT 9999 FEW020 BKN240 17/13 Q1026 NOSIG RMK BLU BLU

Time: 10:11 (09:11 UTC)

Forecast

The report was made 1 hour and 38 minutes ago, at 07:33 UTC
Forecast valid from 21 at 09 UTC to 21 at 18 UTC
Wind 10 kt from the South/Southwest
Visibility 10 km or more
Few clouds at a height of 3500 ft

TAF: EGYM 210733Z 2109/2118 21010KT 9999 FEW035

Weather observations and forecasts of more than 4000 airports (METAR and TAF reports).

The available stations are represented by yellow and red dots on the map.

Hover mouse over dot to see the name of the station.

Then click to see weather observations and forecasts.

To change the map : click on the green buttons with a black cross to zoom in, on the green button with a dash to zoom out, or on the green arrows for adjacent maps.


METAR-TAF: